createdAt,value
2018-12-15T00:00:49.124Z,29.77
2018-12-15T00:05:55.997Z,34.47
2018-12-15T00:11:00.839Z,32.80
2018-12-15T00:16:05.813Z,33.77
2018-12-15T00:21:10.624Z,35.17
2018-12-15T00:26:15.506Z,31.33
2018-12-15T00:31:20.464Z,34.93
2018-12-15T00:36:25.503Z,38.10
2018-12-15T00:41:30.449Z,35.07
2018-12-15T00:46:35.403Z,37.67
2018-12-15T00:51:40.244Z,34.70
2018-12-15T00:56:45.265Z,37.60
2018-12-15T01:01:50.231Z,37.07
2018-12-15T01:06:55.187Z,40.80
2018-12-15T01:12:00.176Z,42.77
2018-12-15T01:17:05.081Z,44.77
2018-12-15T01:22:10.004Z,45.83
2018-12-15T01:27:14.961Z,45.57
2018-12-15T01:32:20.015Z,37.40
2018-12-15T01:37:24.862Z,37.30
2018-12-15T01:42:29.783Z,36.47
2018-12-15T01:47:34.853Z,38.93
2018-12-15T01:52:39.608Z,39.07
2018-12-15T01:57:44.500Z,34.43
2018-12-15T02:02:49.296Z,37.77
2018-12-15T02:13:29.168Z,36.80
2018-12-15T02:18:34.259Z,32.43
2018-12-15T02:23:39.217Z,38.03
2018-12-15T02:28:44.269Z,34.10
2018-12-15T02:33:50.212Z,33.40
2018-12-15T02:38:55.079Z,38.27
2018-12-15T02:44:00.182Z,34.27
2018-12-15T02:49:05.150Z,33.57
2018-12-15T02:54:10.127Z,32.23
2018-12-15T02:59:15.165Z,33.37
2018-12-15T03:04:20.032Z,26.10
2018-12-15T03:09:25.055Z,31.97
2018-12-15T03:14:30.001Z,30.63
2018-12-15T03:19:35.357Z,26.27
2018-12-15T03:24:40.331Z,23.97
2018-12-15T03:29:45.290Z,23.63
2018-12-15T03:34:50.139Z,26.30
2018-12-15T03:39:54.999Z,24.13
2018-12-15T03:44:59.873Z,25.67
2018-12-15T03:50:05.116Z,27.57
2018-12-15T03:55:09.905Z,25.70
2018-12-15T04:00:14.952Z,24.60
2018-12-15T04:05:19.772Z,25.57
2018-12-15T04:10:24.665Z,27.27
2018-12-15T04:15:29.521Z,28.17
2018-12-15T04:20:34.430Z,27.27
2018-12-15T04:25:40.279Z,24.57
2018-12-15T04:30:45.128Z,26.93
2018-12-15T04:35:49.990Z,30.73
2018-12-15T04:40:54.939Z,26.60
2018-12-15T04:45:59.863Z,28.37
2018-12-15T04:51:04.843Z,27.80
2018-12-15T04:56:09.782Z,26.63
2018-12-15T05:01:14.831Z,31.10
2018-12-15T05:06:19.764Z,30.17
2018-12-15T05:11:24.743Z,29.80
2018-12-15T05:16:29.586Z,31.17
2018-12-15T05:21:34.394Z,30.47
2018-12-15T05:26:39.262Z,34.57
2018-12-15T05:31:44.111Z,33.13
2018-12-15T05:36:49.019Z,33.87
2018-12-15T05:41:53.901Z,29.23
2018-12-15T05:46:58.947Z,34.00
2018-12-15T05:52:03.972Z,32.17
2018-12-15T05:57:08.847Z,35.90
2018-12-15T06:02:15.781Z,35.73
2018-12-15T06:07:20.665Z,33.07
2018-12-15T06:12:25.403Z,34.87
2018-12-15T06:17:30.065Z,36.50
2018-12-15T06:22:35.120Z,43.47
2018-12-15T06:27:40.167Z,37.70
2018-12-15T06:32:45.048Z,39.07
2018-12-15T06:37:50.164Z,42.47
2018-12-15T06:42:56.269Z,43.20
2018-12-15T06:48:01.076Z,40.77
2018-12-15T06:53:05.945Z,41.37
2018-12-15T06:58:10.788Z,49.93
2018-12-15T07:03:15.648Z,38.20
2018-12-15T07:08:20.505Z,43.43
2018-12-15T07:13:25.308Z,43.57
2018-12-15T07:18:30.159Z,43.90
2018-12-15T07:23:35.107Z,43.47
2018-12-15T07:28:40.041Z,41.93
2018-12-15T07:33:44.884Z,44.73
2018-12-15T07:38:50.770Z,43.67
2018-12-15T07:43:55.617Z,43.43
2018-12-15T07:49:00.572Z,45.47
2018-12-15T07:54:05.521Z,47.30
2018-12-15T07:59:10.336Z,42.97
2018-12-15T08:04:15.497Z,44.73
2018-12-15T08:09:20.240Z,48.43
2018-12-15T08:14:25.362Z,49.70
2018-12-15T08:19:30.241Z,51.10
2018-12-15T08:24:34.973Z,59.40
2018-12-15T08:29:47.689Z,50.63
2018-12-15T08:34:53.647Z,73.23
2018-12-15T08:39:58.884Z,61.47
2018-12-15T08:45:03.786Z,54.93
2018-12-15T08:50:09.054Z,56.37
2018-12-15T08:55:13.884Z,51.50
2018-12-15T09:00:18.921Z,55.77
2018-12-15T09:05:23.800Z,59.03
2018-12-15T09:10:30.796Z,52.67
2018-12-15T09:15:36.914Z,59.20
2018-12-15T09:20:41.828Z,57.77
2018-12-15T09:25:46.628Z,56.63
2018-12-15T09:30:51.395Z,60.87
2018-12-15T09:35:56.396Z,63.23
2018-12-15T09:41:01.381Z,58.07
2018-12-15T09:46:06.329Z,54.87
2018-12-15T09:51:11.276Z,58.40
2018-12-15T09:56:16.129Z,54.10
2018-12-15T10:01:21.147Z,56.13
2018-12-15T10:06:26.014Z,59.97
2018-12-15T10:11:31.107Z,62.03
2018-12-15T10:16:36.097Z,62.40
2018-12-15T10:21:42.028Z,68.87
2018-12-15T10:26:47.440Z,58.13
2018-12-15T10:31:57.250Z,66.63
2018-12-15T10:37:02.259Z,58.83
2018-12-15T10:42:07.204Z,58.70
2018-12-15T10:47:12.156Z,65.30
2018-12-15T10:52:19.156Z,60.47
2018-12-15T10:57:24.141Z,60.57
2018-12-15T11:02:28.931Z,65.30
2018-12-15T11:07:34.333Z,65.27
2018-12-15T11:12:39.353Z,66.17
2018-12-15T11:17:44.182Z,65.43
2018-12-15T11:22:49.148Z,58.23
2018-12-15T11:27:54.715Z,62.03
2018-12-15T11:32:59.656Z,67.37
2018-12-15T11:38:04.620Z,63.03
2018-12-15T11:43:10.574Z,61.47
2018-12-15T11:48:15.661Z,73.03
2018-12-15T11:53:20.959Z,74.63
2018-12-15T11:58:26.379Z,72.73
2018-12-15T12:03:31.409Z,75.23
2018-12-15T12:08:36.646Z,71.20
2018-12-15T12:13:41.589Z,66.57
2018-12-15T12:18:46.662Z,68.13
2018-12-15T12:23:51.482Z,65.50
2018-12-15T12:28:58.457Z,65.60
2018-12-15T12:34:03.606Z,61.70
2018-12-15T12:39:09.298Z,62.17
2018-12-15T12:44:14.023Z,67.70
2018-12-15T12:49:18.982Z,63.97
2018-12-15T12:54:23.933Z,62.67
2018-12-15T12:59:28.986Z,59.23
2018-12-15T13:04:33.827Z,55.10
2018-12-15T13:09:38.684Z,57.37
2018-12-15T13:14:43.728Z,59.70
2018-12-15T13:19:48.569Z,62.53
2018-12-15T13:24:53.415Z,65.90
2018-12-15T13:29:58.667Z,65.47
2018-12-15T13:35:03.564Z,65.80
2018-12-15T13:40:09.429Z,61.17
2018-12-15T13:45:14.420Z,60.33
2018-12-15T13:50:19.177Z,56.90
2018-12-15T13:55:24.154Z,58.77
2018-12-15T14:00:28.964Z,62.43
2018-12-15T14:05:33.840Z,59.30
2018-12-15T14:10:38.750Z,62.40
2018-12-15T14:15:44.016Z,60.00
2018-12-15T14:20:48.939Z,57.23
2018-12-15T14:25:53.921Z,58.70
2018-12-15T14:30:59.053Z,70.30
2018-12-15T14:36:04.000Z,61.03
2018-12-15T14:41:08.854Z,59.50
2018-12-15T14:46:13.815Z,57.20
2018-12-15T14:51:18.757Z,57.97
2018-12-15T14:56:23.708Z,62.17
2018-12-15T15:01:28.661Z,62.67
2018-12-15T15:06:33.596Z,62.07
2018-12-15T15:11:38.538Z,62.60
2018-12-15T15:16:43.591Z,62.13
2018-12-15T15:21:48.531Z,68.90
2018-12-15T15:26:53.289Z,74.17
2018-12-15T15:31:58.226Z,71.00
2018-12-15T15:37:02.983Z,69.50
2018-12-15T15:42:07.932Z,69.03
2018-12-15T15:47:12.859Z,61.23
2018-12-15T15:52:17.744Z,87.80
2018-12-15T15:57:22.653Z,68.70
2018-12-15T16:02:27.587Z,71.30
2018-12-15T16:07:32.486Z,70.07
2018-12-15T16:12:37.420Z,69.60
2018-12-15T16:17:42.328Z,71.50
2018-12-15T16:22:47.316Z,64.60
2018-12-15T16:27:52.255Z,61.13
2018-12-15T16:32:57.296Z,62.23
2018-12-15T16:38:02.154Z,59.93
2018-12-15T16:43:07.216Z,62.90
2018-12-15T16:48:12.244Z,65.80
2018-12-15T16:53:17.126Z,62.60
2018-12-15T16:58:22.240Z,63.47
2018-12-15T17:03:30.458Z,65.27
2018-12-15T17:08:33.898Z,61.27
2018-12-15T17:13:38.756Z,69.43
2018-12-15T17:18:43.802Z,60.77
2018-12-15T17:23:48.721Z,85.87
2018-12-15T17:28:53.787Z,80.47
2018-12-15T17:33:58.631Z,69.07
2018-12-15T17:39:04.146Z,63.17
2018-12-15T17:44:10.107Z,61.17
2018-12-15T17:49:16.016Z,61.90
2018-12-15T17:54:20.735Z,61.70
2018-12-15T17:59:25.708Z,59.83
2018-12-15T18:04:31.883Z,63.23
2018-12-15T18:09:36.725Z,66.13
2018-12-15T18:14:41.697Z,69.57
2018-12-15T18:19:46.521Z,64.80
2018-12-15T18:24:56.531Z,60.30
2018-12-15T18:30:01.478Z,64.83
2018-12-15T18:35:06.702Z,64.00
2018-12-15T18:40:11.551Z,60.90
2018-12-15T18:45:16.576Z,61.33
2018-12-15T18:50:21.429Z,65.13
2018-12-15T18:55:26.493Z,63.80
2018-12-15T19:00:31.443Z,60.43
2018-12-15T19:05:36.507Z,61.60
2018-12-15T19:10:41.313Z,61.77
2018-12-15T19:15:46.276Z,64.20
2018-12-15T19:20:51.135Z,64.33
2018-12-15T19:25:56.193Z,58.40
2018-12-15T19:31:01.038Z,66.07
2018-12-15T19:36:06.023Z,62.60
2018-12-15T19:41:11.069Z,68.17
2018-12-15T19:46:15.966Z,166.27
2018-12-15T19:51:20.884Z,66.53
2018-12-15T19:56:25.870Z,65.60
2018-12-15T20:01:30.830Z,63.83
2018-12-15T20:06:35.851Z,63.57
2018-12-15T20:11:40.781Z,69.20
2018-12-15T20:16:46.072Z,63.40
2018-12-15T20:21:51.073Z,69.03
2018-12-15T20:26:55.932Z,66.37
2018-12-15T20:32:01.116Z,63.73
2018-12-15T20:37:06.139Z,69.53
2018-12-15T20:42:11.193Z,70.53
2018-12-15T20:47:16.122Z,69.40
2018-12-15T20:52:21.004Z,69.87
2018-12-15T20:57:25.836Z,68.23
2018-12-15T21:02:31.006Z,75.40
2018-12-15T21:07:36.064Z,72.03
2018-12-15T21:12:42.152Z,63.40
2018-12-15T21:17:47.074Z,59.90
2018-12-15T21:22:51.938Z,64.67
2018-12-15T21:27:56.935Z,64.27
2018-12-15T21:33:01.941Z,62.30
2018-12-15T21:38:07.676Z,66.40
2018-12-15T21:43:12.629Z,67.50
2018-12-15T21:48:17.683Z,100.23
2018-12-15T21:53:22.525Z,61.40
2018-12-15T21:58:27.437Z,124.60
2018-12-15T22:03:32.305Z,65.57
2018-12-15T22:08:37.042Z,113.33
2018-12-15T22:13:42.008Z,64.73
2018-12-15T22:18:46.873Z,64.80
2018-12-15T22:23:52.001Z,69.67
2018-12-15T22:28:56.837Z,66.83
2018-12-15T22:34:01.663Z,70.73
2018-12-15T22:39:07.996Z,73.13
2018-12-15T22:44:14.390Z,67.03
2018-12-15T22:49:19.626Z,63.77
2018-12-15T22:54:24.575Z,63.23
2018-12-15T22:59:29.524Z,67.50
2018-12-15T23:04:34.346Z,73.93
2018-12-15T23:09:39.269Z,70.50
2018-12-15T23:14:44.132Z,79.43
2018-12-15T23:19:48.983Z,83.37
2018-12-15T23:24:53.932Z,120.30
2018-12-15T23:29:58.790Z,112.90
2018-12-15T23:35:04.174Z,100.43
2018-12-15T23:40:09.308Z,155.03
2018-12-15T23:45:14.337Z,173.93
2018-12-15T23:50:19.215Z,174.13
2018-12-15T23:55:24.256Z,144.93
